Time;durP1;ratioP1;P1;durP2;ratioP2;P2;SDS_P1;SDS_P2;PMS_P1;PMS_P2;Temp;Humidity;BMP_temperature;BMP_pressure;BME280_temperature;BME280_humidity;BME280_pressure;Samples;Min_cycle;Max_cycle;Signal;HPM_P1;HPM_P2
2023/03/14 00:01:23;;;;;;;5.85;3.08;;;;;;;14.18;38.54;99470.63;5073221;28;20163;-64
2023/03/14 00:03:54;;;;;;;4.13;2.50;;;;;;;14.16;38.45;99470.78;5073232;28;20052;-66
2023/03/14 00:06:23;;;;;;;4.60;2.80;;;;;;;14.16;38.48;99457.34;5073133;28;20132;-65
2023/03/14 00:08:52;;;;;;;4.68;2.60;;;;;;;14.16;38.56;99453.84;5073009;28;20512;-65
2023/03/14 00:11:22;;;;;;;5.78;2.83;;;;;;;14.15;38.45;99454.81;5073064;28;20041;-64
2023/03/14 00:13:51;;;;;;;4.90;2.88;;;;;;;14.13;38.37;99446.91;5073036;28;20505;-65
2023/03/14 00:16:20;;;;;;;5.60;3.00;;;;;;;14.11;38.40;99443.53;5073211;28;20478;-66
2023/03/14 00:18:48;;;;;;;5.30;2.97;;;;;;;14.09;38.55;99444.63;5073177;28;20041;-65
2023/03/14 00:21:19;;;;;;;5.65;2.90;;;;;;;14.12;38.58;99436.31;5073058;28;20409;-66
2023/03/14 00:23:47;;;;;;;4.68;2.97;;;;;;;14.11;38.41;99431.94;5072974;28;20490;-65
2023/03/14 00:26:20;;;;;;;5.22;2.70;;;;;;;14.09;38.57;99424.03;5072740;28;20049;-66
2023/03/14 00:28:52;;;;;;;4.13;2.55;;;;;;;14.07;38.60;99422.44;5072673;28;20404;-64
2023/03/14 00:31:21;;;;;;;5.60;3.13;;;;;;;14.09;38.58;99418.69;5072653;28;20123;-64
2023/03/14 00:33:52;;;;;;;4.90;2.78;;;;;;;14.06;38.52;99418.94;5072553;28;20378;-65
2023/03/14 00:36:21;;;;;;;4.32;2.80;;;;;;;14.06;38.46;99407.34;5071757;28;20048;-65
2023/03/14 00:38:51;;;;;;;5.10;2.67;;;;;;;14.02;38.50;99396.91;5072251;28;20051;-64
2023/03/14 00:41:22;;;;;;;5.50;3.10;;;;;;;14.04;38.50;99399.44;5072498;28;20076;-64
2023/03/14 00:43:52;;;;;;;4.82;3.00;;;;;;;14.04;38.44;99402.97;5072503;28;20093;-66
2023/03/14 00:46:20;;;;;;;5.20;3.03;;;;;;;14.01;38.60;99403.25;5072225;28;20552;-64
2023/03/14 00:48:49;;;;;;;4.57;2.65;;;;;;;14.02;38.60;99401.41;5072416;28;20049;-65
2023/03/14 00:51:17;;;;;;;4.90;2.70;;;;;;;14.01;38.49;99407.78;5072275;28;20044;-65
2023/03/14 00:53:45;;;;;;;5.63;2.60;;;;;;;14.00;38.56;99398.03;5072241;28;20509;-65
2023/03/14 00:56:14;;;;;;;5.13;2.63;;;;;;;14.00;38.56;99392.66;5072268;28;20044;-65
2023/03/14 00:58:42;;;;;;;5.57;2.90;;;;;;;13.99;38.60;99390.94;5072346;28;20044;-65
2023/03/14 01:01:15;;;;;;;5.65;2.90;;;;;;;13.99;38.62;99393.63;5072095;28;20049;-65
2023/03/14 01:03:43;;;;;;;4.90;2.72;;;;;;;13.97;38.64;99388.41;5072092;28;20040;-65
2023/03/14 01:06:14;;;;;;;4.50;2.70;;;;;;;13.96;38.69;99388.53;5072323;28;20102;-65
2023/03/14 01:08:43;;;;;;;4.72;2.70;;;;;;;13.95;38.55;99373.44;5072167;28;20448;-65
2023/03/14 01:11:14;;;;;;;5.72;3.03;;;;;;;13.93;38.48;99372.75;5072022;28;20040;-65
2023/03/14 01:13:42;;;;;;;4.43;2.78;;;;;;;13.94;38.48;99363.72;5072090;28;20051;-64
2023/03/14 01:16:13;;;;;;;4.60;2.80;;;;;;;13.94;38.48;99377.13;5072035;28;20070;-64
2023/03/14 01:18:44;;;;;;;5.80;3.17;;;;;;;13.93;38.66;99380.78;5072050;28;20094;-64
2023/03/14 01:21:14;;;;;;;4.72;2.80;;;;;;;13.91;38.56;99364.00;5081308;28;20068;-66
2023/03/14 01:23:43;;;;;;;4.93;2.92;;;;;;;13.91;38.59;99356.78;5083832;28;20063;-66
2023/03/14 01:26:12;;;;;;;5.75;3.05;;;;;;;13.91;38.49;99348.75;5083735;28;20138;-66
2023/03/14 01:28:41;;;;;;;5.47;3.10;;;;;;;13.90;38.56;99347.06;5073215;28;20087;-64
2023/03/14 01:31:12;;;;;;;5.10;2.97;;;;;;;13.89;38.62;99336.44;5071908;28;20048;-65
2023/03/14 01:33:41;;;;;;;5.55;3.28;;;;;;;13.88;38.65;99335.59;5071930;28;20396;-65
2023/03/14 01:36:11;;;;;;;4.40;2.60;;;;;;;13.85;38.52;99327.00;5071961;28;20048;-66
2023/03/14 01:38:40;;;;;;;4.97;3.00;;;;;;;13.82;38.64;99317.41;5071816;28;20045;-65
2023/03/14 01:41:13;;;;;;;5.72;2.80;;;;;;;13.85;38.63;99318.94;5071695;28;20076;-65
2023/03/14 01:43:41;;;;;;;5.47;2.60;;;;;;;13.83;38.61;99315.56;5071760;28;20044;-65
2023/03/14 01:46:32;;;;;;;4.88;2.90;;;;;;;13.83;38.84;99316.41;5071780;28;20327;-65
2023/03/14 01:49:07;;;;;;;5.57;3.28;;;;;;;13.82;38.57;99305.81;5075273;28;20057;-65
2023/03/14 01:51:43;;;;;;;5.28;2.85;;;;;;;13.82;38.59;99301.31;5075811;28;20078;-65
2023/03/14 01:54:17;;;;;;;5.72;3.30;;;;;;;13.81;38.69;99291.56;5075757;28;20477;-64
2023/03/14 01:56:49;;;;;;;6.18;3.10;;;;;;;13.80;38.66;99289.88;5075692;28;20075;-66
2023/03/14 01:59:17;;;;;;;5.57;3.42;;;;;;;13.79;38.58;99298.03;5075623;28;20056;-66
2023/03/14 02:01:48;;;;;;;5.32;3.10;;;;;;;13.79;38.60;99287.31;5075697;28;20047;-66
2023/03/14 02:04:19;;;;;;;5.65;3.08;;;;;;;13.78;38.72;99291.81;5075234;28;20049;-64
2023/03/14 02:06:55;;;;;;;5.55;3.20;;;;;;;13.75;38.77;99290.28;5075657;28;20045;-66
2023/03/14 02:09:23;;;;;;;6.00;3.40;;;;;;;13.77;38.79;99276.72;5075239;28;20048;-66
2023/03/14 02:11:52;;;;;;;5.20;3.00;;;;;;;13.77;38.57;99262.50;5075163;28;20505;-64
2023/03/14 02:14:30;;;;;;;4.90;3.15;;;;;;;13.74;38.73;99256.41;5075157;28;20478;-66
2023/03/14 02:17:00;;;;;;;5.78;3.15;;;;;;;13.74;38.78;99255.56;5075082;28;20052;-66
2023/03/14 02:19:44;;;;;;;5.35;3.20;;;;;;;13.74;38.73;99250.22;5075140;28;20071;-66
2023/03/14 02:22:14;;;;;;;5.50;3.17;;;;;;;13.72;38.64;99239.63;5075119;28;20032;-66
2023/03/14 02:24:52;;;;;;;4.90;3.15;;;;;;;13.72;38.55;99245.00;5075049;28;20489;-66
2023/03/14 02:27:22;;;;;;;6.05;3.20;;;;;;;13.72;38.68;99241.47;5075059;28;20052;-65
2023/03/14 02:29:53;;;;;;;5.00;3.08;;;;;;;13.70;38.58;99236.25;5074934;28;20048;-65
2023/03/14 02:32:23;;;;;;;5.20;3.10;;;;;;;13.71;38.78;99231.75;5075138;28;20057;-66
2023/03/14 02:34:55;;;;;;;5.07;3.08;;;;;;;13.66;38.64;99223.25;5075222;28;20094;-65
2023/03/14 02:37:27;;;;;;;5.20;3.08;;;;;;;13.69;38.84;99223.81;5075024;28;20048;-66
2023/03/14 02:39:58;;;;;;;6.00;3.42;;;;;;;13.69;38.73;99218.44;5074634;28;20055;-65
2023/03/14 02:42:27;;;;;;;6.93;3.40;;;;;;;13.67;38.77;99212.38;5074742;28;20059;-65
2023/03/14 02:45:01;;;;;;;7.60;3.80;;;;;;;13.63;38.79;99216.34;5074664;28;20141;-65
2023/03/14 02:47:31;;;;;;;4.80;3.22;;;;;;;13.66;38.67;99218.72;5074718;28;20048;-65
2023/03/14 02:50:07;;;;;;;5.32;3.05;;;;;;;13.66;38.75;99217.88;5074623;28;20055;-65
2023/03/14 02:52:37;;;;;;;5.22;3.10;;;;;;;13.65;38.72;99216.19;5074557;28;20056;-65
2023/03/14 02:55:06;;;;;;;5.55;3.20;;;;;;;13.62;38.79;99203.94;5074565;28;20056;-66
2023/03/14 02:57:36;;;;;;;5.30;3.33;;;;;;;13.64;38.79;99201.94;5074443;28;20391;-65
2023/03/14 03:00:05;;;;;;;5.47;3.13;;;;;;;13.62;38.90;99206.59;5073769;28;20048;-65
2023/03/14 03:02:35;;;;;;;5.90;3.08;;;;;;;13.60;38.75;99195.16;5074177;28;20382;-65
2023/03/14 03:05:04;;;;;;;6.53;3.63;;;;;;;13.62;38.81;99185.19;5074298;28;20443;-64
2023/03/14 03:07:32;;;;;;;5.40;3.25;;;;;;;13.59;38.77;99184.59;5074336;28;20142;-66
2023/03/14 03:10:00;;;;;;;5.57;3.30;;;;;;;13.58;38.81;99178.38;5074775;28;20440;-65
2023/03/14 03:12:28;;;;;;;5.25;3.20;;;;;;;13.58;39.00;99183.75;5074253;28;20091;-66
2023/03/14 03:14:58;;;;;;;5.95;3.40;;;;;;;13.59;38.78;99174.72;5074642;28;20044;-64
2023/03/14 03:17:26;;;;;;;5.68;3.35;;;;;;;13.58;38.79;99173.00;5074105;28;20463;-66
2023/03/14 03:19:54;;;;;;;7.18;3.38;;;;;;;13.59;38.95;99182.75;5074110;28;20094;-66
2023/03/14 03:22:22;;;;;;;5.03;3.15;;;;;;;13.59;38.90;99193.47;5074074;28;20056;-66
2023/03/14 03:24:50;;;;;;;5.50;3.30;;;;;;;13.56;38.93;99180.34;5074153;28;20048;-66
2023/03/14 03:27:18;;;;;;;5.82;3.38;;;;;;;13.52;38.92;99168.22;5074017;28;20115;-65
2023/03/14 03:29:47;;;;;;;5.80;3.22;;;;;;;13.57;38.84;99170.47;5074079;28;20446;-66
2023/03/14 03:32:17;;;;;;;5.68;3.10;;;;;;;13.56;38.96;99174.16;5073884;28;20087;-65
2023/03/14 03:34:45;;;;;;;7.15;3.88;;;;;;;13.55;38.89;99170.63;5073941;28;20053;-66
2023/03/14 03:37:13;;;;;;;5.40;3.22;;;;;;;13.55;38.94;99167.94;5073776;28;20045;-66
2023/03/14 03:39:46;;;;;;;5.20;3.30;;;;;;;13.53;38.92;99169.06;5073809;28;20056;-64
2023/03/14 03:42:14;;;;;;;5.25;3.35;;;;;;;13.51;39.01;99163.84;5073726;28;20094;-66
2023/03/14 03:44:42;;;;;;;5.30;3.00;;;;;;;13.52;38.84;99170.91;5073473;28;20052;-66
2023/03/14 03:47:10;;;;;;;5.47;3.17;;;;;;;13.51;39.11;99171.91;5073629;28;20123;-64
2023/03/14 03:49:41;;;;;;;6.00;3.25;;;;;;;13.50;39.09;99167.50;5073722;28;20071;-65
2023/03/14 03:52:09;;;;;;;4.97;3.08;;;;;;;13.52;39.06;99162.03;5073561;28;20132;-65
2023/03/14 03:54:37;;;;;;;5.03;3.08;;;;;;;13.51;39.00;99169.22;5073563;28;20036;-65
2023/03/14 03:57:10;;;;;;;6.30;3.70;;;;;;;13.49;39.17;99156.91;5073355;28;20064;-66
2023/03/14 03:59:40;;;;;;;5.95;3.50;;;;;;;13.51;38.96;99162.97;5073527;28;20063;-67
2023/03/14 04:02:09;;;;;;;6.78;3.40;;;;;;;13.50;39.01;99159.47;5073248;28;20076;-66
2023/03/14 04:04:38;;;;;;;5.97;3.22;;;;;;;13.49;38.90;99159.59;5073133;28;20052;-65
2023/03/14 04:07:09;;;;;;;6.45;3.75;;;;;;;13.49;38.97;99159.59;5073489;28;20401;-66
2023/03/14 04:09:39;;;;;;;7.03;3.40;;;;;;;13.49;39.04;99156.91;5073064;28;20524;-65
2023/03/14 04:12:07;;;;;;;5.03;3.30;;;;;;;13.47;39.14;99146.34;5073037;28;20336;-66
2023/03/14 04:14:38;;;;;;;5.60;3.38;;;;;;;13.47;39.01;99138.31;5073065;28;20389;-65
2023/03/14 04:17:06;;;;;;;5.85;3.28;;;;;;;13.44;39.04;99131.41;5073252;28;20051;-65
2023/03/14 04:19:34;;;;;;;6.20;3.50;;;;;;;13.44;39.00;99127.88;5072957;28;20052;-66
2023/03/14 04:22:03;;;;;;;7.60;3.63;;;;;;;13.46;38.90;99129.44;5072833;28;20052;-64
2023/03/14 04:24:32;;;;;;;6.78;3.80;;;;;;;13.43;39.14;99139.59;5072572;28;20486;-65
2023/03/14 04:27:00;;;;;;;6.63;3.20;;;;;;;13.44;39.12;99150.16;5072681;28;20052;-66
2023/03/14 04:29:29;;;;;;;6.15;3.47;;;;;;;13.44;39.09;99154.66;5072689;28;20080;-65
2023/03/14 04:31:57;;;;;;;6.43;3.40;;;;;;;13.43;39.09;99153.81;5072697;28;20040;-65
2023/03/14 04:34:25;;;;;;;5.70;3.20;;;;;;;13.44;39.04;99149.31;5072882;28;20090;-65
2023/03/14 04:36:53;;;;;;;4.97;3.03;;;;;;;13.43;39.12;99131.53;5072455;28;20048;-66
2023/03/14 04:39:21;;;;;;;7.18;3.67;;;;;;;13.42;39.21;99125.34;5072458;28;20056;-65
2023/03/14 04:41:51;;;;;;;5.35;3.33;;;;;;;13.43;39.16;99128.88;5072812;28;20124;-65
2023/03/14 04:44:20;;;;;;;5.88;3.20;;;;;;;13.42;39.17;99145.94;5072522;28;20058;-64
2023/03/14 04:46:48;;;;;;;5.97;3.40;;;;;;;13.36;39.20;99141.09;5072452;28;20070;-64
2023/03/14 04:49:16;;;;;;;5.97;3.47;;;;;;;13.40;39.26;99147.88;5072254;28;20052;-64
2023/03/14 04:51:44;;;;;;;6.28;3.40;;;;;;;13.39;39.20;99146.19;5072149;28;20053;-64
2023/03/14 04:54:12;;;;;;;5.40;3.30;;;;;;;13.35;39.31;99144.78;5072157;28;20049;-65
2023/03/14 04:56:40;;;;;;;5.97;3.50;;;;;;;13.38;39.00;99152.53;5072210;28;20119;-65
2023/03/14 04:59:10;;;;;;;6.88;3.67;;;;;;;13.36;39.22;99147.31;5072145;28;20079;-65
2023/03/14 05:01:40;;;;;;;6.70;3.70;;;;;;;13.33;39.34;99152.09;5072180;28;20044;-66
2023/03/14 05:04:09;;;;;;;5.50;3.22;;;;;;;13.34;39.00;99143.94;5071891;28;20044;-64
2023/03/14 05:06:37;;;;;;;6.00;3.33;;;;;;;13.35;39.31;99144.78;5072151;28;20048;-64
2023/03/14 05:09:06;;;;;;;6.65;3.70;;;;;;;13.35;39.17;99147.44;5072008;28;20467;-66
2023/03/14 05:11:35;;;;;;;5.60;3.30;;;;;;;13.33;39.39;99136.03;5072041;28;20075;-65
2023/03/14 05:14:19;;;;;;;5.55;3.10;;;;;;;13.34;39.21;99133.22;5072030;28;20048;-65
2023/03/14 05:16:59;;;;;;;5.43;3.22;;;;;;;13.35;39.38;99118.00;5071854;28;20486;-65
2023/03/14 05:19:38;;;;;;;5.93;3.50;;;;;;;13.34;39.25;99121.66;5071851;28;20048;-65
2023/03/14 05:22:19;;;;;;;5.93;3.20;;;;;;;13.32;39.09;99119.13;5071670;28;20052;-66
2023/03/14 05:25:00;;;;;;;6.05;3.55;;;;;;;13.33;39.11;99125.31;5071655;28;20070;-64
2023/03/14 05:27:38;;;;;;;6.10;3.50;;;;;;;13.30;39.27;99115.72;5071800;28;20516;-65
2023/03/14 05:30:25;;;;;;;5.70;3.67;;;;;;;13.30;39.20;99114.84;5071999;28;20045;-64
2023/03/14 05:32:58;;;;;;;6.28;3.75;;;;;;;13.28;39.08;99114.16;5071610;28;20421;-64
2023/03/14 05:35:28;;;;;;;5.75;3.47;;;;;;;13.30;39.41;99120.22;5071623;28;20123;-65
2023/03/14 05:37:59;;;;;;;6.32;3.55;;;;;;;13.30;39.25;99125.56;5071585;28;20481;-65
2023/03/14 05:40:34;;;;;;;5.63;3.80;;;;;;;13.30;39.53;99130.94;5071511;28;20060;-66
2023/03/14 05:43:09;;;;;;;5.75;3.10;;;;;;;13.30;39.27;99117.53;5071629;28;20498;-65
2023/03/14 05:45:49;;;;;;;5.47;3.42;;;;;;;13.30;39.43;99115.72;5071605;28;20067;-66
2023/03/14 05:48:26;;;;;;;5.50;3.30;;;;;;;13.26;39.36;99102.75;5071647;28;20120;-64
2023/03/14 05:51:21;;;;;;;6.18;3.65;;;;;;;13.28;39.44;99106.13;5070796;28;20062;-66
2023/03/14 05:53:59;;;;;;;4.97;3.20;;;;;;;13.30;39.29;99114.84;5071417;28;20049;-65
2023/03/14 05:56:33;;;;;;;;;;;;;;;13.30;39.52;99109.50;5072064;28;20041;-66
2023/03/14 05:59:06;;;;;;;5.68;3.55;;;;;;;13.30;39.51;99104.16;5071558;28;19920;-66
2023/03/14 06:01:44;;;;;;;6.35;3.60;;;;;;;13.29;39.44;99097.09;5071434;28;20148;-64
2023/03/14 06:04:19;;;;;;;5.50;3.10;;;;;;;13.27;39.45;99102.59;5071310;28;20413;-64
2023/03/14 06:07:13;;;;;;;5.30;3.40;;;;;;;13.30;39.42;99106.81;5071236;28;20556;-64
2023/03/14 06:09:54;;;;;;;6.68;3.53;;;;;;;13.29;39.36;99114.00;5071371;28;20463;-66
2023/03/14 06:12:41;;;;;;;6.78;3.95;;;;;;;13.31;39.55;99125.44;5071055;28;20102;-66
2023/03/14 06:15:23;;;;;;;5.63;3.42;;;;;;;13.27;39.33;99116.00;5071040;28;20143;-66
2023/03/14 06:18:09;;;;;;;5.10;3.22;;;;;;;13.26;39.39;99108.09;5071251;28;20094;-64
2023/03/14 06:20:49;;;;;;;6.18;3.35;;;;;;;13.30;39.35;99105.00;5071356;28;20044;-65
2023/03/14 06:23:52;;;;;;;6.32;3.67;;;;;;;13.33;39.51;99119.97;5071113;28;20049;-65
2023/03/14 06:26:21;;;;;;;5.97;3.30;;;;;;;13.30;39.34;99113.03;5071841;28;20421;-66
2023/03/14 06:29:20;;;;;;;6.95;3.67;;;;;;;13.32;39.33;99112.91;5071099;28;20056;-66
2023/03/14 06:31:56;;;;;;;6.03;3.72;;;;;;;13.32;39.35;99115.59;5071360;28;20048;-64
2023/03/14 06:34:25;;;;;;;5.90;3.40;;;;;;;13.33;39.47;99115.44;5072196;28;20421;-64
2023/03/14 06:36:53;;;;;;;5.80;3.45;;;;;;;13.34;39.64;99118.97;5074729;28;20127;-64
2023/03/14 06:39:21;;;;;;;5.85;3.67;;;;;;;13.33;39.55;99114.59;5074510;28;20052;-64
2023/03/14 06:41:50;;;;;;;7.00;3.83;;;;;;;13.30;39.58;99112.19;5074626;28;20067;-65
2023/03/14 06:44:18;;;;;;;6.60;3.85;;;;;;;13.32;39.55;99118.28;5074495;28;20045;-65
2023/03/14 06:46:46;;;;;;;6.85;3.70;;;;;;;13.31;39.46;99122.75;5074606;28;20127;-65
2023/03/14 06:49:14;;;;;;;4.88;3.50;;;;;;;13.33;39.56;99122.66;5074880;28;20098;-64
2023/03/14 06:51:44;;;;;;;6.18;3.78;;;;;;;13.34;39.67;99127.00;5074458;28;20052;-64
2023/03/14 06:54:13;;;;;;;5.03;3.08;;;;;;;13.33;39.39;99134.19;5074571;28;20377;-65
2023/03/14 06:56:41;;;;;;;8.02;3.58;;;;;;;13.33;39.51;99126.16;5074536;28;20573;-65
2023/03/14 06:59:09;;;;;;;6.07;3.70;;;;;;;13.33;39.42;99119.97;5074399;28;20501;-65
2023/03/14 07:01:38;;;;;;;7.15;3.80;;;;;;;13.35;39.45;99121.50;5074263;28;20555;-66
2023/03/14 07:04:06;;;;;;;7.82;3.75;;;;;;;13.36;39.55;99119.69;5074316;28;20392;-66
2023/03/14 07:06:35;;;;;;;6.55;3.95;;;;;;;13.31;39.60;99106.69;5074211;28;20517;-65
2023/03/14 07:09:04;;;;;;;5.72;3.92;;;;;;;13.36;39.48;99117.84;5074249;28;20128;-65
2023/03/14 07:11:34;;;;;;;6.20;3.75;;;;;;;13.35;39.37;99113.47;5074148;28;20226;-65
2023/03/14 07:14:02;;;;;;;6.53;3.70;;;;;;;13.35;39.56;99107.28;5074053;28;20406;-65
2023/03/14 07:16:32;;;;;;;6.13;3.70;;;;;;;13.37;39.48;99100.78;5073990;28;20044;-65
2023/03/14 07:19:01;;;;;;;6.18;3.60;;;;;;;13.39;39.68;99109.53;5074076;28;20145;-65
2023/03/14 07:21:31;;;;;;;5.25;3.33;;;;;;;13.33;39.59;99109.25;5074059;28;20122;-65
2023/03/14 07:23:59;;;;;;;7.25;3.90;;;;;;;13.37;39.64;99116.00;5074013;28;20044;-66
2023/03/14 07:26:29;;;;;;;6.75;3.78;;;;;;;13.36;39.58;99100.94;5073885;28;20512;-66
2023/03/14 07:28:57;;;;;;;6.68;3.90;;;;;;;13.37;39.72;99102.63;5074167;28;20127;-66
2023/03/14 07:31:26;;;;;;;7.68;3.65;;;;;;;13.38;39.62;99104.31;5074089;28;20106;-65
2023/03/14 07:34:02;;;;;;;6.78;3.88;;;;;;;13.39;39.61;99108.69;5073886;28;20401;-65
2023/03/14 07:36:30;;;;;;;6.22;3.80;;;;;;;13.41;39.75;99098.66;5073730;28;20105;-65
2023/03/14 07:38:59;;;;;;;7.25;3.80;;;;;;;13.37;39.74;99090.06;5073724;28;20041;-65
2023/03/14 07:41:28;;;;;;;6.30;3.83;;;;;;;13.42;39.66;99092.34;5073780;28;20379;-65
2023/03/14 07:43:56;;;;;;;6.70;3.78;;;;;;;13.40;39.86;99084.44;5077907;28;20036;-65
2023/03/14 07:46:27;;;;;;;6.05;3.78;;;;;;;13.39;39.78;99088.09;5078302;28;20674;-65
2023/03/14 07:48:57;;;;;;;7.18;3.60;;;;;;;13.38;40.04;99064.13;5081053;28;20489;-65
2023/03/14 07:51:25;;;;;;;5.97;3.80;;;;;;;13.43;39.79;99084.19;5081384;28;20040;-66
2023/03/14 07:53:53;;;;;;;7.90;3.85;;;;;;;13.44;39.88;99080.50;5076452;28;20051;-66
2023/03/14 07:56:22;;;;;;;7.63;3.58;;;;;;;13.44;40.02;99074.31;5073391;28;20048;-65
2023/03/14 07:58:51;;;;;;;6.35;3.80;;;;;;;13.48;39.87;99067.69;5073449;28;20044;-65
2023/03/14 08:01:19;;;;;;;7.65;4.13;;;;;;;13.48;39.92;99065.00;5073440;28;20048;-65
2023/03/14 08:03:47;;;;;;;6.47;3.60;;;;;;;13.49;39.97;99055.13;5073215;28;20067;-67
2023/03/14 08:06:15;;;;;;;6.47;3.90;;;;;;;13.49;40.05;99058.66;5073135;28;20048;-65
2023/03/14 08:08:44;;;;;;;6.63;3.70;;;;;;;13.52;39.98;99061.06;5072869;28;20055;-64
2023/03/14 08:11:12;;;;;;;5.78;3.72;;;;;;;13.54;39.93;99053.72;5072975;28;20436;-65
2023/03/14 08:13:41;;;;;;;8.30;3.65;;;;;;;13.55;40.03;99050.06;5072912;28;20070;-64
2023/03/14 08:16:15;;;;;;;6.40;3.63;;;;;;;13.54;39.91;99048.38;5072864;28;20040;-66
2023/03/14 08:18:43;;;;;;;6.07;3.80;;;;;;;13.55;40.11;99043.88;5072778;28;20048;-66
2023/03/14 08:21:11;;;;;;;6.18;3.45;;;;;;;13.56;40.18;99032.16;5072935;28;20049;-65
2023/03/14 08:23:39;;;;;;;8.50;3.63;;;;;;;13.56;40.20;99041.03;5072742;28;20052;-65
2023/03/14 08:26:08;;;;;;;8.20;3.60;;;;;;;13.59;40.20;99034.53;5073018;28;20124;-64
2023/03/14 08:28:36;;;;;;;6.53;3.90;;;;;;;13.55;40.31;99038.50;5072693;28;20051;-64
2023/03/14 08:31:05;;;;;;;6.55;3.95;;;;;;;13.58;40.25;99047.09;5072550;28;20436;-66
2023/03/14 08:33:35;;;;;;;7.78;3.95;;;;;;;13.62;40.20;99047.69;5072712;28;20041;-64
2023/03/14 08:36:05;;;;;;;6.72;3.67;;;;;;;13.57;40.35;99026.66;5072683;28;20131;-66
2023/03/14 08:38:33;;;;;;;6.30;3.78;;;;;;;13.61;40.26;99033.44;5072698;28;20094;-64
2023/03/14 08:41:03;;;;;;;6.80;3.80;;;;;;;13.64;40.42;99029.63;5072271;28;20390;-66
2023/03/14 08:43:31;;;;;;;6.88;3.75;;;;;;;13.66;40.48;99027.63;5072482;28;20429;-70
2023/03/14 08:46:01;;;;;;;5.70;3.83;;;;;;;13.66;40.49;99019.59;5072195;28;20047;-64
2023/03/14 08:48:30;;;;;;;6.72;3.60;;;;;;;13.65;40.25;99018.75;5072522;28;20041;-64
2023/03/14 08:51:05;;;;;;;7.30;3.88;;;;;;;13.67;40.39;99016.78;5072108;28;20048;-64
2023/03/14 08:53:33;;;;;;;7.38;3.70;;;;;;;13.67;40.40;99005.22;5072031;28;20048;-65
2023/03/14 08:56:01;;;;;;;7.70;3.70;;;;;;;13.70;40.56;99008.47;5072205;28;20040;-66
2023/03/14 08:58:30;;;;;;;5.28;3.38;;;;;;;13.71;40.41;98996.78;5071615;28;20072;-65
2023/03/14 09:00:58;;;;;;;6.47;3.65;;;;;;;13.70;40.52;98984.34;5072184;28;20071;-64
2023/03/14 09:03:26;;;;;;;7.18;3.88;;;;;;;13.72;40.47;98982.38;5072042;28;20127;-64
2023/03/14 09:05:55;;;;;;;6.18;3.58;;;;;;;13.71;40.73;98986.03;5071900;28;20048;-66
2023/03/14 09:08:24;;;;;;;6.90;3.67;;;;;;;13.77;40.67;98989.13;5072020;28;20143;-66
2023/03/14 09:10:52;;;;;;;6.38;3.53;;;;;;;13.77;40.78;98987.28;5071887;28;20494;-64
2023/03/14 09:13:21;;;;;;;5.00;3.13;;;;;;;13.80;40.69;98991.50;5071824;28;20048;-66
2023/03/14 09:15:51;;;;;;;6.80;3.63;;;;;;;13.79;40.72;98992.50;5072357;28;20398;-66
2023/03/14 09:18:20;;;;;;;5.72;3.50;;;;;;;13.82;40.91;98978.84;5071789;28;20119;-66
2023/03/14 09:20:48;;;;;;;6.75;3.42;;;;;;;13.83;40.88;98983.22;5071907;28;20040;-64
2023/03/14 09:23:16;;;;;;;6.93;3.42;;;;;;;13.86;41.12;98964.16;5071770;28;20443;-64
2023/03/14 09:25:46;;;;;;;6.45;3.80;;;;;;;13.87;41.11;98968.50;5072059;28;20044;-65
2023/03/14 09:28:14;;;;;;;7.13;3.60;;;;;;;13.88;41.06;98970.19;5071849;28;20379;-66
2023/03/14 09:30:43;;;;;;;6.63;3.30;;;;;;;13.91;40.99;98959.22;5071564;28;20051;-65
2023/03/14 09:33:12;;;;;;;6.22;3.40;;;;;;;13.93;41.13;98963.44;5071703;28;20052;-65
2023/03/14 09:35:40;;;;;;;7.00;3.35;;;;;;;13.95;41.08;98952.56;5071763;28;20326;-66
2023/03/14 09:38:08;;;;;;;5.75;3.50;;;;;;;13.97;41.11;98947.91;5071736;28;20125;-65
2023/03/14 09:40:37;;;;;;;6.30;3.15;;;;;;;13.98;41.25;98945.06;5071858;28;20059;-67
2023/03/14 09:43:10;;;;;;;4.88;2.92;;;;;;;14.00;41.05;98935.06;5072020;28;20418;-66
2023/03/14 09:45:40;;;;;;;6.22;3.40;;;;;;;14.04;41.30;98935.59;5071678;28;20127;-65
2023/03/14 09:48:15;;;;;;;5.50;3.30;;;;;;;14.09;41.33;98933.34;5071416;28;20048;-66
2023/03/14 09:50:49;;;;;;;6.32;3.40;;;;;;;14.11;41.28;98933.19;5071222;28;20056;-65
2023/03/14 09:53:20;;;;;;;5.45;3.15;;;;;;;14.14;41.47;98924.84;5071341;28;20563;-66
2023/03/14 09:55:50;;;;;;;6.03;3.20;;;;;;;14.15;41.47;98922.00;5071472;28;20040;-66
2023/03/14 09:58:22;;;;;;;5.97;2.83;;;;;;;14.19;41.43;98909.16;5071492;28;20040;-65
2023/03/14 10:00:52;;;;;;;5.80;3.13;;;;;;;14.22;41.45;98904.34;5071474;28;20052;-64
2023/03/14 10:03:27;;;;;;;4.88;2.85;;;;;;;14.25;41.40;98909.41;5071402;28;20044;-67
2023/03/14 10:05:56;;;;;;;5.18;2.90;;;;;;;14.32;41.44;98899.78;5071676;28;20389;-65
2023/03/14 10:08:25;;;;;;;6.18;3.30;;;;;;;14.37;41.49;98879.69;5072490;28;20045;-67
2023/03/14 10:10:56;;;;;;;5.75;3.10;;;;;;;14.41;41.68;98875.75;5107438;28;20072;-65
2023/03/14 10:13:29;;;;;;;5.55;3.45;;;;;;;14.45;41.50;98866.41;5075106;28;20535;-67
2023/03/14 10:16:01;;;;;;;6.40;2.85;;;;;;;14.49;41.67;98867.81;5075355;28;20040;-66
2023/03/14 10:18:33;;;;;;;6.65;2.95;;;;;;;14.53;41.85;98863.84;5075157;28;20055;-65
2023/03/14 10:21:17;;;;;;;6.50;3.47;;;;;;;14.59;41.89;98852.50;5075283;28;20052;-66
2023/03/14 10:23:46;;;;;;;4.60;2.80;;;;;;;14.64;41.79;98847.50;5075001;28;20094;-66
2023/03/14 10:26:18;;;;;;;5.88;3.10;;;;;;;14.69;41.96;98826.44;5074993;28;20047;-65
2023/03/14 10:28:52;;;;;;;6.63;3.25;;;;;;;14.74;41.98;98829.50;5075140;28;20567;-65
2023/03/14 10:31:26;;;;;;;7.75;3.20;;;;;;;14.75;42.05;98816.91;5074940;28;20515;-65
2023/03/14 10:34:02;;;;;;;6.97;3.33;;;;;;;14.82;42.01;98821.53;5074881;28;20098;-65
2023/03/14 10:36:33;;;;;;;6.07;3.10;;;;;;;14.88;41.95;98831.66;5074873;28;20045;-65
2023/03/14 10:39:25;;;;;;;6.88;3.10;;;;;;;14.90;42.15;98823.44;5074578;28;20052;-65
2023/03/14 10:41:57;;;;;;;6.63;2.75;;;;;;;14.96;42.05;98821.97;5074731;28;20432;-65
2023/03/14 10:44:31;;;;;;;6.35;2.65;;;;;;;15.02;42.11;98821.34;5074789;28;20052;-65
2023/03/14 10:47:01;;;;;;;6.68;2.42;;;;;;;15.03;42.18;98820.34;5074482;28;20071;-64
2023/03/14 10:49:31;;;;;;;7.50;2.58;;;;;;;15.07;42.10;98827.13;5074522;28;20059;-65
2023/03/14 10:52:16;;;;;;;6.40;2.70;;;;;;;15.10;42.13;98808.84;5074588;28;20048;-66
2023/03/14 10:54:49;;;;;;;5.60;2.35;;;;;;;15.14;42.29;98814.72;5074597;28;20050;-66
2023/03/14 10:57:21;;;;;;;5.35;2.33;;;;;;;15.21;42.32;98807.75;5074562;28;20405;-65
2023/03/14 10:59:51;;;;;;;5.70;2.47;;;;;;;15.26;42.17;98807.28;5074258;28;20135;-66
2023/03/14 11:02:39;;;;;;;4.03;2.22;;;;;;;15.32;42.30;98806.66;5074456;28;20048;-65
2023/03/14 11:05:24;;;;;;;3.78;2.10;;;;;;;15.38;42.25;98796.13;5074216;28;20090;-66
2023/03/14 11:07:54;;;;;;;3.97;2.10;;;;;;;15.45;42.22;98790.97;5074159;28;20048;-66
2023/03/14 11:10:27;;;;;;;4.55;2.30;;;;;;;15.48;42.31;98790.63;5074351;28;20071;-65
2023/03/14 11:13:10;;;;;;;4.87;2.03;;;;;;;15.53;42.27;98782.94;5074298;28;20098;-67
2023/03/14 11:15:46;;;;;;;5.50;2.30;;;;;;;15.58;42.17;98779.78;5074171;28;20512;-65
2023/03/14 11:18:37;;;;;;;3.70;2.00;;;;;;;15.61;42.11;98783.00;5074050;28;20041;-64
2023/03/14 11:21:13;;;;;;;4.35;1.70;;;;;;;15.67;42.06;98781.53;5073582;28;20049;-65
2023/03/14 11:23:48;;;;;;;4.97;2.15;;;;;;;15.75;42.06;98754.72;5074080;28;20094;-66
2023/03/14 11:26:27;;;;;;;5.25;1.90;;;;;;;15.82;42.06;98755.72;5073860;28;20101;-66
2023/03/14 11:28:59;;;;;;;4.68;1.70;;;;;;;15.86;42.11;98757.09;5073571;28;20052;-66
2023/03/14 11:31:29;;;;;;;4.47;1.92;;;;;;;15.92;42.02;98753.78;5073861;28;20068;-64
2023/03/14 11:34:08;;;;;;;4.57;1.67;;;;;;;15.97;41.93;98740.66;5074095;28;20050;-65
2023/03/14 11:36:40;;;;;;;10.35;1.98;;;;;;;16.01;41.78;98739.31;5075650;28;20194;-66
2023/03/14 11:39:14;;;;;;;4.80;2.00;;;;;;;16.07;41.93;98720.88;5074058;28;20059;-66
2023/03/14 11:41:46;;;;;;;3.90;1.58;;;;;;;16.08;41.92;98728.75;5073634;28;20082;-66
2023/03/14 11:44:19;;;;;;;4.82;1.88;;;;;;;16.13;41.84;98726.44;5073489;28;20409;-66
2023/03/14 11:46:51;;;;;;;;;;;;;;;16.16;41.99;98719.88;5074022;28;20262;-65
2023/03/14 11:49:32;;;;;;;2.28;1.50;;;;;;;16.19;41.83;98711.47;5073471;28;19921;-66
2023/03/14 11:52:04;;;;;;;4.65;1.65;;;;;;;16.27;41.80;98708.78;5073159;28;20053;-65
2023/03/14 11:54:42;;;;;;;2.97;1.50;;;;;;;16.31;41.89;98697.56;5073395;28;20510;-65